Time;durP1;ratioP1;P1;durP2;ratioP2;P2;SDS_P1;SDS_P2;PMS_P1;PMS_P2;Temp;Humidity;BMP_temperature;BMP_pressure;BME280_temperature;BME280_humidity;BME280_pressure;Samples;Min_cycle;Max_cycle;Signal;HPM_P1;HPM_P2
2023/04/03 00:00:04;;;;;;;;;;;;;;;29.60;74.54;100810.25;5079930;27;67381;-42
2023/04/03 00:02:34;;;;;;;;;;;;;;;29.61;74.59;100823.56;5075242;27;69971;-42
2023/04/03 00:05:05;;;;;;;;;;;;;;;29.65;74.37;100818.59;5081319;27;67366;-43
2023/04/03 00:07:35;;;;;;;;;;;;;;;29.69;73.88;100817.09;5080077;27;69287;-43
2023/04/03 00:10:06;;;;;;;;;;;;;;;29.74;73.49;100811.88;5079306;27;66058;-43
2023/04/03 00:12:36;;;;;;;;;;;;;;;29.78;72.77;100818.53;5080348;27;69958;-44
2023/04/03 00:15:07;;;;;;;;;;;;;;;29.83;72.61;100825.97;5078708;27;66215;-44
2023/04/03 00:17:37;;;;;;;;;;;;;;;29.89;72.24;100830.53;5079894;27;69474;-44
2023/04/03 00:20:08;;;;;;;;;;;;;;;29.95;71.96;100836.94;5078701;28;66395;-41
2023/04/03 00:22:38;;;;;;;;;;;;;;;29.95;71.80;100840.50;5081948;27;70715;-41
2023/04/03 00:25:09;;;;;;;;;;;;;;;29.99;71.38;100847.13;5077734;27;65394;-41
2023/04/03 00:27:39;;;;;;;;;;;;;;;29.99;71.81;100849.84;5077367;27;70615;-44
2023/04/03 00:30:12;;;;;;;;;;;;;;;29.97;68.79;100851.91;5076792;27;65952;-47
2023/04/03 00:32:42;;;;;;;;;;;;;;;29.98;67.59;100844.66;5078570;28;68602;-46
2023/04/03 00:35:15;;;;;;;;;;;;;;;30.00;67.01;100854.19;5076200;27;65489;-44
2023/04/03 00:37:47;;;;;;;;;;;;;;;30.04;66.84;100854.63;5076760;27;69269;-45
2023/04/03 00:40:18;;;;;;;;;;;;;;;30.06;65.78;100858.75;5062868;28;66392;-44
2023/04/03 00:42:51;;;;;;;;;;;;;;;30.10;65.67;100874.56;5059877;28;70538;-44
2023/04/03 00:45:27;;;;;;;;;;;;;;;30.11;65.55;100877.03;5094088;27;65901;-45
2023/04/03 00:47:59;;;;;;;;;;;;;;;29.94;65.13;100838.00;5073207;27;69383;-46
2023/04/03 00:50:30;;;;;;;;;;;;;;;30.16;65.16;100885.34;5077173;27;66874;-46
2023/04/03 00:53:00;;;;;;;;;;;;;;;30.19;64.94;100879.50;5075312;28;69073;-46
2023/04/03 00:55:31;;;;;;;;;;;;;;;30.20;64.64;100889.28;5076494;27;66862;-46
2023/04/03 00:58:02;;;;;;;;;;;;;;;30.23;64.46;100890.78;5078566;27;71023;-45
2023/04/03 01:00:33;;;;;;;;;;;;;;;30.26;63.61;100901.97;5060560;27;66156;-44
2023/04/03 01:03:07;;;;;;;;;;;;;;;30.27;63.91;100903.63;5075410;27;63289;-45
2023/04/03 01:05:40;;;;;;;;;;;;;;;30.30;63.35;100901.56;5061240;27;67014;-45
2023/04/03 01:08:11;;;;;;;;;;;;;;;30.31;63.71;100904.03;5077942;27;69207;-44
2023/04/03 01:10:41;;;;;;;;;;;;;;;30.34;63.19;100913.59;5077274;28;65102;-45
2023/04/03 01:13:23;;;;;;;;;;;;;;;30.35;63.37;100920.69;5073507;27;71247;-46
2023/04/03 01:15:54;;;;;;;;;;;;;;;30.38;63.16;100925.66;5056708;28;66198;-45
2023/04/03 01:18:25;;;;;;;;;;;;;;;30.40;63.13;100923.56;5076327;27;70861;-44
2023/04/03 01:20:55;;;;;;;;;;;;;;;30.42;63.13;100933.16;5058048;27;66919;-45
2023/04/03 01:23:44;;;;;;;;;;;;;;;30.44;62.92;100935.63;5054436;28;70171;-47
2023/04/03 01:26:14;;;;;;;;;;;;;;;30.45;62.67;100930.00;5088540;27;65857;-45
2023/04/03 01:28:44;;;;;;;;;;;;;;;30.47;62.25;100932.47;5056174;28;70023;-46
2023/04/03 01:31:21;;;;;;;;;;;;;;;30.49;62.34;100927.69;5072992;27;65846;-47
2023/04/03 01:33:51;;;;;;;;;;;;;;;30.51;62.43;100933.72;5074352;27;70718;-45
2023/04/03 01:36:26;;;;;;;;;;;;;;;30.54;62.10;100941.41;5054959;28;65906;-45
2023/04/03 01:38:59;;;;;;;;;;;;;;;30.55;61.99;100937.63;5056714;28;69905;-44
2023/04/03 01:41:30;;;;;;;;;;;;;;;30.58;62.32;100948.03;5073171;27;65893;-46
2023/04/03 01:44:09;;;;;;;;;;;;;;;30.59;62.03;100944.28;5055046;27;70246;-44
2023/04/03 01:46:41;;;;;;;;;;;;;;;30.62;61.69;100946.56;5064456;28;66248;-45
2023/04/03 01:49:12;;;;;;;;;;;;;;;30.64;61.97;100947.16;5047642;28;70422;-50
2023/04/03 01:51:42;;;;;;;;;;;;;;;30.66;61.60;100955.91;5073604;27;66751;-44
2023/04/03 01:54:12;;;;;;;;;;;;;;;30.67;61.51;100957.56;5072847;27;69900;-45
2023/04/03 01:56:43;;;;;;;;;;;;;;;30.70;61.96;100956.28;5074095;27;66304;-44
2023/04/03 01:59:16;;;;;;;;;;;;;;;30.71;61.93;100958.78;5056052;27;71314;-45
2023/04/03 02:01:46;;;;;;;;;;;;;;;30.73;61.74;100955.88;5057469;28;66455;-45
2023/04/03 02:04:18;;;;;;;;;;;;;;;30.76;61.71;100960.00;5075032;27;69485;-45
2023/04/03 02:06:48;;;;;;;;;;;;;;;30.78;61.69;100963.31;5074200;27;65628;-45
2023/04/03 02:09:18;;;;;;;;;;;;;;;30.80;61.54;100966.69;5081348;27;70712;-45
2023/04/03 02:11:48;;;;;;;;;;;;;;;30.82;61.29;100967.31;5073003;27;66821;-44
2023/04/03 02:14:21;;;;;;;;;;;;;;;30.85;61.34;100966.88;5057484;28;70393;-45
2023/04/03 02:16:51;;;;;;;;;;;;;;;30.86;61.26;100977.47;5050052;28;66589;-45
2023/04/03 02:19:23;;;;;;;;;;;;;;;30.88;61.25;100958.31;5074578;28;70134;-44
2023/04/03 02:21:54;;;;;;;;;;;;;;;30.90;61.58;100961.63;5089711;27;67355;-45
2023/04/03 02:24:24;;;;;;;;;;;;;;;30.93;61.39;100961.19;5087113;27;70316;-44
2023/04/03 02:26:54;;;;;;;;;;;;;;;30.95;61.11;100964.50;5060809;28;66284;-44
2023/04/03 02:29:25;;;;;;;;;;;;;;;30.98;61.37;100963.22;5076898;27;70862;-45
2023/04/03 02:31:55;;;;;;;;;;;;;;;31.00;61.22;100963.84;5078132;27;65637;-46
2023/04/03 02:34:26;;;;;;;;;;;;;;;31.03;60.78;100960.69;5078586;27;70454;-46
2023/04/03 02:36:57;;;;;;;;;;;;;;;31.05;60.84;100959.44;5060125;28;66736;-45
2023/04/03 02:39:27;;;;;;;;;;;;;;;31.07;60.72;100957.34;5073810;27;70682;-44
2023/04/03 02:41:59;;;;;;;;;;;;;;;31.10;60.64;100962.31;5062634;28;66270;-45
2023/04/03 02:44:30;;;;;;;;;;;;;;;31.12;60.83;100960.22;5061070;28;70106;-45
2023/04/03 02:47:01;;;;;;;;;;;;;;;31.14;60.25;100951.84;5076731;27;66491;-44
2023/04/03 02:49:31;;;;;;;;;;;;;;;31.18;60.68;100953.09;5078095;27;70128;-45
2023/04/03 02:52:02;;;;;;;;;;;;;;;31.21;60.31;100959.94;5076186;27;66414;-45
2023/04/03 02:54:33;;;;;;;;;;;;;;;31.24;60.20;100957.63;5051529;28;70658;-45
2023/04/03 02:57:08;;;;;;;;;;;;;;;31.26;59.99;100950.09;5096186;27;65399;-45
2023/04/03 02:59:40;;;;;;;;;;;;;;;31.28;60.37;100953.41;5058120;28;70332;-44
2023/04/03 03:02:12;;;;;;;;;;;;;;;31.31;59.88;100950.25;5062568;28;66699;-45
2023/04/03 03:04:42;;;;;;;;;;;;;;;31.33;59.94;100950.03;5062420;27;69828;-45
2023/04/03 03:07:13;;;;;;;;;;;;;;;31.37;59.96;100945.84;5047893;28;66697;-44
2023/04/03 03:09:43;;;;;;;;;;;;;;;31.39;60.14;100938.34;5066039;27;69235;-44
2023/04/03 03:12:14;;;;;;;;;;;;;;;31.41;59.57;100941.66;5078903;27;65770;-47
2023/04/03 03:14:45;;;;;;;;;;;;;;;31.44;59.44;100941.22;5072097;27;70167;-44
2023/04/03 03:17:15;;;;;;;;;;;;;;;31.46;59.35;100944.53;5076047;27;65559;-46
2023/04/03 03:19:45;;;;;;;;;;;;;;;31.50;59.01;100940.31;5061554;27;70168;-45
2023/04/03 03:22:16;;;;;;;;;;;;;;;31.52;59.24;100949.06;5071184;27;66529;-45
2023/04/03 03:24:47;;;;;;;;;;;;;;;31.55;59.31;100936.94;5077892;27;70260;-45
2023/04/03 03:27:17;;;;;;;;;;;;;;;31.36;58.96;100901.66;5061711;28;66484;-45
2023/04/03 03:29:48;;;;;;;;;;;;;;;31.60;58.80;100935.22;5087099;27;70269;-45
2023/04/03 03:32:19;;;;;;;;;;;;;;;31.62;58.95;100934.97;5058565;28;65979;-46
2023/04/03 03:34:49;;;;;;;;;;;;;;;31.64;59.08;100937.47;5058489;28;70767;-44
2023/04/03 03:37:21;;;;;;;;;;;;;;;31.67;58.40;100934.31;5061263;27;66630;-45
2023/04/03 03:39:51;;;;;;;;;;;;;;;31.69;58.65;100922.19;5061845;28;70881;-44
2023/04/03 03:42:22;;;;;;;;;;;;;;;31.71;58.71;100919.25;5057914;28;66190;-45
2023/04/03 03:44:52;;;;;;;;;;;;;;;31.73;58.46;100912.56;5057828;28;69167;-45
2023/04/03 03:47:23;;;;;;;;;;;;;;;31.75;58.58;100917.75;5066561;27;66328;-44
2023/04/03 03:49:54;;;;;;;;;;;;;;;31.77;58.33;100912.94;5059579;28;70870;-43
2023/04/03 03:52:26;;;;;;;;;;;;;;;31.80;57.93;100915.19;5068038;28;66991;-45
2023/04/03 03:54:56;;;;;;;;;;;;;;;31.82;57.85;100916.63;5058598;27;71492;-44
2023/04/03 03:57:28;;;;;;;;;;;;;;;31.85;58.07;100904.50;5056461;28;66497;-44
2023/04/03 03:59:59;;;;;;;;;;;;;;;31.89;57.84;100899.44;5056010;28;69963;-45
2023/04/03 04:02:30;;;;;;;;;;;;;;;31.91;57.72;100903.63;5058559;28;65867;-46
2023/04/03 04:05:01;;;;;;;;;;;;;;;31.91;57.54;100890.06;5071174;27;69783;-45
2023/04/03 04:07:31;;;;;;;;;;;;;;;31.93;57.60;100890.66;5031896;28;66329;-44
2023/04/03 04:10:03;;;;;;;;;;;;;;;31.95;57.76;100885.81;5036850;28;70182;-45
2023/04/03 04:12:35;;;;;;;;;;;;;;;31.98;57.56;100887.25;5071076;27;66336;-44
2023/04/03 04:15:06;;;;;;;;;;;;;;;31.99;57.56;100881.59;5051729;28;69718;-44
2023/04/03 04:17:36;;;;;;;;;;;;;;;32.02;57.35;100875.72;5057067;28;66114;-46
2023/04/03 04:20:11;;;;;;;;;;;;;;;32.04;57.42;100868.19;5033818;28;69508;-45
2023/04/03 04:22:42;;;;;;;;;;;;;;;32.06;57.41;100859.81;5056042;28;66564;-44
2023/04/03 04:25:13;;;;;;;;;;;;;;;32.09;57.40;100861.22;5054523;28;70836;-45
2023/04/03 04:27:43;;;;;;;;;;;;;;;32.10;57.31;100857.47;5069610;27;66257;-45
2023/04/03 04:30:16;;;;;;;;;;;;;;;32.11;57.38;100854.53;5070789;27;70195;-44
2023/04/03 04:32:49;;;;;;;;;;;;;;;32.13;56.87;100852.41;5072003;28;66848;-44
2023/04/03 04:35:19;;;;;;;;;;;;;;;32.16;57.12;100851.94;5056475;28;70386;-44
2023/04/03 04:37:52;;;;;;;;;;;;;;;32.19;57.07;100840.63;5056872;28;66365;-45
2023/04/03 04:40:22;;;;;;;;;;;;;;;32.21;56.89;100848.56;5056841;28;70973;-45
2023/04/03 04:42:52;;;;;;;;;;;;;;;32.23;56.83;100835.56;5073706;27;66667;-45
2023/04/03 04:45:23;;;;;;;;;;;;;;;32.26;57.01;100835.09;5072564;27;69919;-46
2023/04/03 04:47:55;;;;;;;;;;;;;;;32.30;56.68;100830.06;5055195;27;66189;-47
2023/04/03 04:50:26;;;;;;;;;;;;;;;32.31;56.71;100827.09;5069303;27;70211;-47
2023/04/03 04:52:57;;;;;;;;;;;;;;;32.34;56.57;100814.94;5058193;28;67011;-46
2023/04/03 04:55:27;;;;;;;;;;;;;;;32.35;56.53;100806.59;5056429;28;70356;-45
2023/04/03 04:57:58;;;;;;;;;;;;;;;32.38;56.41;100811.53;5052235;28;66739;-45
2023/04/03 05:00:28;;;;;;;;;;;;;;;32.39;56.48;100813.19;5057664;28;69860;-45
2023/04/03 05:02:58;;;;;;;;;;;;;;;32.42;56.53;100796.44;5072980;28;66806;-45
2023/04/03 05:05:29;;;;;;;;;;;;;;;32.45;56.22;100790.53;5055525;28;69714;-45
2023/04/03 05:07:59;;;;;;;;;;;;;;;32.47;56.20;100788.47;5054750;28;65762;-45
2023/04/03 05:10:29;;;;;;;;;;;;;;;32.51;56.14;100799.66;5053535;28;69756;-45
2023/04/03 05:13:00;;;;;;;;;;;;;;;32.52;55.93;100789.66;5066192;27;66161;-45
2023/04/03 05:15:30;;;;;;;;;;;;;;;32.55;56.03;100772.91;5056433;27;69514;-45
2023/04/03 05:18:00;;;;;;;;;;;;;;;32.57;55.78;100778.91;5056823;28;65935;-44
2023/04/03 05:20:31;;;;;;;;;;;;;;;32.59;55.52;100774.06;5065659;27;71127;-45
2023/04/03 05:23:01;;;;;;;;;;;;;;;32.62;55.70;100763.56;5060101;28;66751;-45
2023/04/03 05:25:37;;;;;;;;;;;;;;;32.64;55.58;100756.00;5073972;27;70700;-46
2023/04/03 05:28:08;;;;;;;;;;;;;;;32.65;55.48;100752.25;5061713;28;66274;-45
2023/04/03 05:30:38;;;;;;;;;;;;;;;32.68;55.59;100748.19;5052839;28;70615;-44
2023/04/03 05:33:10;;;;;;;;;;;;;;;32.70;55.63;100746.91;5071624;27;66540;-44
2023/04/03 05:35:46;;;;;;;;;;;;;;;32.74;55.37;100739.13;5041924;28;70421;-44
2023/04/03 05:38:21;;;;;;;;;;;;;;;32.74;55.39;100731.00;5073075;28;66664;-46
2023/04/03 05:40:53;;;;;;;;;;;;;;;32.74;55.38;100727.44;5072887;28;70601;-44
2023/04/03 05:43:24;;;;;;;;;;;;;;;32.79;55.48;100725.69;5050523;28;65186;-45
2023/04/03 05:45:54;;;;;;;;;;;;;;;32.82;55.13;100713.47;5056806;28;70248;-45
2023/04/03 05:48:27;;;;;;;;;;;;;;;32.83;54.98;100710.53;5070544;27;67082;-45
2023/04/03 05:50:58;;;;;;;;;;;;;;;32.84;55.04;100706.75;5055780;27;70187;-44
2023/04/03 05:53:30;;;;;;;;;;;;;;;32.85;55.14;100703.00;5073961;27;66958;-44
2023/04/03 05:56:04;;;;;;;;;;;;;;;32.86;55.16;100704.63;5090325;27;70764;-44
2023/04/03 05:58:39;;;;;;;;;;;;;;;32.88;55.15;100712.56;5042975;27;65593;-45
2023/04/03 06:01:09;;;;;;;;;;;;;;;32.90;55.22;100710.41;5064702;28;69980;-47
2023/04/03 06:03:40;;;;;;;;;;;;;;;32.92;55.01;100708.28;5063014;28;66797;-45
2023/04/03 06:06:13;;;;;;;;;;;;;;;32.90;55.13;100694.94;5084090;27;69627;-45
2023/04/03 06:08:44;;;;;;;;;;;;;;;32.92;55.53;100675.69;5058068;28;66339;-45
2023/04/03 06:11:14;;;;;;;;;;;;;;;32.93;55.39;100642.84;5081818;27;70284;-45
2023/04/03 06:13:45;;;;;;;;;;;;;;;32.94;55.62;100638.22;5063882;28;66149;-45
2023/04/03 06:16:15;;;;;;;;;;;;;;;32.97;55.82;100631.50;5083493;27;69778;-46
2023/04/03 06:18:45;;;;;;;;;;;;;;;32.97;56.07;100628.78;5079381;27;66646;-45
2023/04/03 06:21:15;;;;;;;;;;;;;;;32.97;55.84;100615.19;5067955;28;69641;-45
2023/04/03 06:23:46;;;;;;;;;;;;;;;32.98;55.79;100609.50;5068752;27;66086;-45
2023/04/03 06:26:16;;;;;;;;;;;;;;;32.97;55.75;100596.19;5083592;27;70270;-44
2023/04/03 06:28:46;;;;;;;;;;;;;;;33.00;55.88;100609.31;5082018;27;66358;-46
2023/04/03 06:31:16;;;;;;;;;;;;;;;33.00;55.88;100606.59;5067122;27;70027;-44
2023/04/03 06:33:47;;;;;;;;;;;;;;;33.01;55.66;100602.78;5081991;27;66942;-44
2023/04/03 06:36:19;;;;;;;;;;;;;;;33.03;55.52;100597.94;5084585;27;69308;-44
2023/04/03 06:38:50;;;;;;;;;;;;;;;33.05;55.74;100587.66;5078358;27;66915;-45
2023/04/03 06:41:21;;;;;;;;;;;;;;;33.06;55.90;100590.13;5082739;27;69824;-44
2023/04/03 06:43:51;;;;;;;;;;;;;;;33.08;55.70;100593.44;5085723;27;65174;-44
2023/04/03 06:46:22;;;;;;;;;;;;;;;33.10;55.96;100585.06;5082491;27;69807;-44
2023/04/03 06:48:52;;;;;;;;;;;;;;;33.11;56.19;100583.97;5083294;27;66559;-44
2023/04/03 06:51:24;;;;;;;;;;;;;;;33.12;56.10;100583.72;5081378;27;69939;-46
2023/04/03 06:53:56;;;;;;;;;;;;;;;33.13;56.04;100571.81;5080832;27;66093;-44
2023/04/03 06:56:27;;;;;;;;;;;;;;;33.15;56.13;100561.53;5083239;27;70339;-43
2023/04/03 06:58:57;;;;;;;;;;;;;;;33.18;56.09;100553.94;5080887;27;66572;-44
2023/04/03 07:01:28;;;;;;;;;;;;;;;33.19;55.82;100550.97;5054092;27;70934;-45
2023/04/03 07:03:59;;;;;;;;;;;;;;;33.21;56.13;100548.00;5082500;27;66376;-44
2023/04/03 07:06:30;;;;;;;;;;;;;;;33.24;55.81;100537.47;5080205;27;70347;-44
2023/04/03 07:09:02;;;;;;;;;;;;;;;33.25;55.91;100539.13;5081765;27;66992;-44
2023/04/03 07:11:32;;;;;;;;;;;;;;;33.28;56.25;100549.50;5076531;27;70283;-44
2023/04/03 07:14:03;;;;;;;;;;;;;;;33.29;56.14;100534.84;5078145;28;66105;-45
2023/04/03 07:16:34;;;;;;;;;;;;;;;33.31;55.95;100532.69;5075958;27;70789;-44
2023/04/03 07:19:08;;;;;;;;;;;;;;;33.33;56.27;100518.88;5077207;27;67019;-44
2023/04/03 07:21:38;;;;;;;;;;;;;;;33.35;56.15;100512.13;5078740;27;69684;-44
2023/04/03 07:24:09;;;;;;;;;;;;;;;33.40;55.75;100502.38;5080957;27;66474;-44
2023/04/03 07:26:45;;;;;;;;;;;;;;;33.43;55.99;100482.84;5079413;27;70309;-44
2023/04/03 07:29:15;;;;;;;;;;;;;;;33.45;55.83;100475.28;5077308;27;67324;-44
2023/04/03 07:31:45;;;;;;;;;;;;;;;33.48;55.79;100472.88;5080631;27;70642;-44
2023/04/03 07:34:15;;;;;;;;;;;;;;;33.54;55.52;100473.81;5080027;27;65034;-45
2023/04/03 07:36:45;;;;;;;;;;;;;;;33.56;55.42;100463.53;5079538;27;70015;-44
2023/04/03 07:39:15;;;;;;;;;;;;;;;33.61;55.57;100477.22;5080074;27;65465;-44
2023/04/03 07:41:45;;;;;;;;;;;;;;;33.66;55.43;100479.19;5079042;27;70185;-45
2023/04/03 07:44:15;;;;;;;;;;;;;;;33.68;55.38;100483.28;5078619;27;67249;-45
2023/04/03 07:46:46;;;;;;;;;;;;;;;33.71;55.22;100466.50;5078217;27;68692;-45
2023/04/03 07:49:18;;;;;;;;;;;;;;;33.74;55.03;100460.56;5079824;27;65932;-45
2023/04/03 07:51:48;;;;;;;;;;;;;;;33.76;55.10;100468.44;5062997;27;68430;-45
2023/04/03 07:54:18;;;;;;;;;;;;;;;33.79;55.18;100455.19;5079945;27;65502;-45
2023/04/03 07:56:48;;;;;;;;;;;;;;;33.84;55.15;100448.16;5079632;27;69016;-44
2023/04/03 07:59:19;;;;;;;;;;;;;;;33.87;54.91;100448.47;5079177;27;65547;-45
2023/04/03 08:01:50;;;;;;;;;;;;;;;33.92;54.80;100450.44;5079906;27;69370;-45
2023/04/03 08:04:20;;;;;;;;;;;;;;;33.96;55.10;100451.56;5071722;27;66067;-45
2023/04/03 08:06:51;;;;;;;;;;;;;;;34.00;55.00;100458.19;5059889;28;69826;-45
2023/04/03 08:09:21;;;;;;;;;;;;;;;34.05;54.54;100450.13;5079290;27;66501;-45
2023/04/03 08:11:53;;;;;;;;;;;;;;;34.09;54.84;100451.25;5076181;27;69842;-44
2023/04/03 08:14:34;;;;;;;;;;;;;;;34.15;54.57;100444.78;5078618;28;65717;-44
2023/04/03 08:17:05;;;;;;;;;;;;;;;34.18;54.55;100444.28;5077817;27;70698;-44
2023/04/03 08:19:35;;;;;;;;;;;;;;;34.23;54.05;100446.25;5071288;27;66657;-44
2023/04/03 08:22:06;;;;;;;;;;;;;;;34.26;54.23;100446.56;5075271;27;70495;-44
2023/04/03 08:24:36;;;;;;;;;;;;;;;34.32;53.85;100438.44;5074419;27;65659;-45
2023/04/03 08:27:11;;;;;;;;;;;;;;;34.36;54.04;100445.88;5075576;27;70388;-44
2023/04/03 08:29:41;;;;;;;;;;;;;;;34.35;54.20;100429.78;5078022;27;67064;-45
2023/04/03 08:32:12;;;;;;;;;;;;;;;34.46;54.10;100439.69;5076854;27;70508;-45
2023/04/03 08:34:42;;;;;;;;;;;;;;;34.50;53.45;100434.59;5072984;27;66197;-44
2023/04/03 08:37:12;;;;;;;;;;;;;;;34.54;53.33;100439.25;5074941;27;70062;-45
2023/04/03 08:39:43;;;;;;;;;;;;;;;34.58;53.45;100436.88;5078082;27;66696;-44
2023/04/03 08:42:19;;;;;;;;;;;;;;;34.62;53.77;100435.28;5083728;27;69563;-45
2023/04/03 08:44:59;;;;;;;;;;;;;;;34.66;53.54;100436.44;5078383;27;65937;-45
2023/04/03 08:47:33;;;;;;;;;;;;;;;34.69;53.44;100450.34;5074978;27;71260;-44
2023/04/03 08:50:06;;;;;;;;;;;;;;;34.75;53.55;100442.22;5078354;27;65738;-44
2023/04/03 08:52:45;;;;;;;;;;;;;;;34.80;52.77;100448.56;5077095;27;69680;-45
2023/04/03 08:55:37;;;;;;;;;;;;;;;34.84;52.77;100459.75;5071719;27;65518;-45
2023/04/03 08:58:19;;;;;;;;;;;;;;;34.88;53.22;100466.31;5070745;27;69915;-44
2023/04/03 09:00:58;;;;;;;;;;;;;;;34.90;53.11;100473.16;5077484;27;66411;-44
2023/04/03 09:03:30;;;;;;;;;;;;;;;34.94;52.75;100484.38;5092684;27;68899;-43
2023/04/03 09:06:08;;;;;;;;;;;;;;;34.95;52.43;100483.28;5078326;27;66257;-44
2023/04/03 09:08:41;;;;;;;;;;;;;;;34.97;52.87;100493.94;5076667;27;70520;-44
2023/04/03 09:11:12;;;;;;;;;;;;;;;34.97;52.49;100500.22;5079151;27;66700;-44
2023/04/03 09:13:45;;;;;;;;;;;;;;;34.97;52.32;100500.22;5074396;27;70109;-45
2023/04/03 09:16:28;;;;;;;;;;;;;;;34.99;51.75;100500.75;5076668;27;65757;-43
2023/04/03 09:19:09;;;;;;;;;;;;;;;34.99;52.05;100498.03;5074758;27;70402;-45
2023/04/03 09:21:42;;;;;;;;;;;;;;;35.00;51.67;100494.25;5074707;27;66444;-43
2023/04/03 09:24:14;;;;;;;;;;;;;;;35.02;51.54;100497.53;5077734;27;70374;-44
2023/04/03 09:26:59;;;;;;;;;;;;;;;35.03;51.45;100496.47;5059180;28;65429;-44
2023/04/03 09:29:30;;;;;;;;;;;;;;;35.04;51.10;100500.81;5074410;27;70666;-44
2023/04/03 09:32:02;;;;;;;;;;;;;;;35.07;50.87;100504.97;5078572;27;67760;-44
2023/04/03 09:34:35;;;;;;;;;;;;;;;35.07;50.95;100527.59;5073316;27;70091;-44
2023/04/03 09:37:06;;;;;;;;;;;;;;;35.07;50.92;100527.59;5076074;27;65943;-45
2023/04/03 09:39:56;;;;;;;;;;;;;;;35.06;51.35;100536.84;5077365;27;70667;-44
2023/04/03 09:42:27;;;;;;;;;;;;;;;35.06;50.71;100536.84;5074559;27;66356;-45
2023/04/03 09:44:58;;;;;;;;;;;;;;;35.04;50.72;100544.44;5076305;27;70543;-45
2023/04/03 09:47:29;;;;;;;;;;;;;;;35.05;51.33;100554.28;5057993;28;66983;-43
2023/04/03 09:50:15;;;;;;;;;;;;;;;35.03;51.34;100552.88;5075708;27;69562;-45
2023/04/03 09:52:47;;;;;;;;;;;;;;;35.02;51.17;100565.69;5074268;27;66338;-45
2023/04/03 09:55:17;;;;;;;;;;;;;;;35.01;51.41;100565.94;5059449;27;70099;-44
2023/04/03 09:57:48;;;;;;;;;;;;;;;35.01;51.36;100565.94;5075125;27;66813;-44
2023/04/03 10:00:23;;;;;;;;;;;;;;;34.99;51.34;100574.34;5074636;27;69235;-43
2023/04/03 10:02:58;;;;;;;;;;;;;;;34.97;50.81;100584.72;5074802;27;66742;-46
2023/04/03 10:05:31;;;;;;;;;;;;;;;34.96;51.59;100587.69;5072988;27;69800;-43
2023/04/03 10:08:14;;;;;;;;;;;;;;;34.94;51.01;100587.94;5072037;27;66261;-46
2023/04/03 10:10:48;;;;;;;;;;;;;;;34.93;51.14;100589.00;5074283;27;70521;-43
2023/04/03 10:13:20;;;;;;;;;;;;;;;34.91;51.42;100599.38;5088463;27;66136;-45
2023/04/03 10:15:55;;;;;;;;;;;;;;;34.82;51.65;100606.31;5074342;27;70581;-45
2023/04/03 10:18:35;;;;;;;;;;;;;;;34.46;54.05;100609.38;5071324;27;65586;-45
2023/04/03 10:21:10;;;;;;;;;;;;;;;34.26;55.70;100615.34;5074811;27;70586;-47
2023/04/03 10:24:09;;;;;;;;;;;;;;;34.09;56.50;100620.00;5074665;27;66234;-43
2023/04/03 10:26:50;;;;;;;;;;;;;;;33.98;57.30;100639.94;5076846;27;69389;-45
2023/04/03 10:29:31;;;;;;;;;;;;;;;33.90;57.83;100648.50;5074994;27;65368;-43
2023/04/03 10:32:04;;;;;;;;;;;;;;;33.87;58.20;100652.53;5075538;27;70019;-44
2023/04/03 10:34:41;;;;;;;;;;;;;;;33.83;58.31;100654.09;5074483;27;67015;-45
2023/04/03 10:37:25;;;;;;;;;;;;;;;33.75;57.78;100668.13;5076529;27;70740;-44
2023/04/03 10:40:01;;;;;;;;;;;;;;;33.79;57.24;100681.00;5051800;27;66695;-43
2023/04/03 10:42:37;;;;;;;;;;;;;;;33.83;56.13;100696.81;5076302;27;71123;-45
2023/04/03 10:45:24;;;;;;;;;;;;;;;33.83;55.93;100705.81;5087825;27;66469;-43
2023/04/03 10:48:17;;;;;;;;;;;;;;;33.71;56.51;100705.03;5077391;27;70659;-43
2023/04/03 10:50:49;;;;;;;;;;;;;;;33.59;56.84;100702.34;5078661;27;66831;-43
2023/04/03 10:53:32;;;;;;;;;;;;;;;33.54;57.23;100705.81;5078930;27;70284;-44
2023/04/03 10:56:11;;;;;;;;;;;;;;;33.48;57.20;100701.31;5079610;27;65984;-44
2023/04/03 10:58:54;;;;;;;;;;;;;;;33.45;57.34;100695.53;5078692;27;70394;-43
2023/04/03 11:01:28;;;;;;;;;;;;;;;33.40;57.27;100698.16;5079853;27;66015;-44
2023/04/03 11:04:00;;;;;;;;;;;;;;;33.34;56.49;100695.31;5060907;28;69391;-43
2023/04/03 11:06:36;;;;;;;;;;;;;;;33.30;56.29;100694.16;5079004;27;66050;-44
2023/04/03 11:09:21;;;;;;;;;;;;;;;33.24;56.15;100678.84;5060297;28;69058;-45
2023/04/03 11:12:13;;;;;;;;;;;;;;;33.22;55.75;100683.69;5078289;27;66049;-46
2023/04/03 11:14:43;;;;;;;;;;;;;;;33.19;55.28;100675.19;5077712;27;69663;-44
2023/04/03 11:17:13;;;;;;;;;;;;;;;33.15;55.34;100663.94;5078956;27;66043;-43
2023/04/03 11:19:47;;;;;;;;;;;;;;;33.12;55.40;100664.44;5080311;27;70319;-44
2023/04/03 11:22:23;;;;;;;;;;;;;;;33.10;55.66;100666.59;5078882;27;66286;-45
2023/04/03 11:24:59;;;;;;;;;;;;;;;33.07;55.73;100664.31;5077604;27;69385;-45
2023/04/03 11:27:33;;;;;;;;;;;;;;;33.03;56.18;100671.31;5078541;28;66379;-44
2023/04/03 11:30:06;;;;;;;;;;;;;;;33.03;56.26;100679.47;5081336;27;69183;-45
2023/04/03 11:32:49;;;;;;;;;;;;;;;32.97;56.56;100688.56;5050652;28;66194;-44
2023/04/03 11:35:20;;;;;;;;;;;;;;;32.97;56.75;100704.84;5080498;27;69770;-45
2023/04/03 11:37:53;;;;;;;;;;;;;;;32.96;57.08;100708.63;5082866;27;66433;-43
2023/04/03 11:40:32;;;;;;;;;;;;;;;32.94;57.56;100725.19;5079676;27;69773;-44
2023/04/03 11:43:05;;;;;;;;;;;;;;;32.91;57.81;100728.38;5046335;27;66102;-44
2023/04/03 11:45:56;;;;;;;;;;;;;;;32.88;58.04;100724.25;5081463;27;70075;-43
2023/04/03 11:48:33;;;;;;;;;;;;;;;32.86;58.33;100726.38;5082228;27;66674;-45
2023/04/03 11:51:16;;;;;;;;;;;;;;;32.85;58.47;100732.88;5079883;27;69527;-44
2023/04/03 11:53:47;;;;;;;;;;;;;;;32.84;58.55;100728.47;5072778;27;66833;-43
2023/04/03 11:56:20;;;;;;;;;;;;;;;32.84;59.19;100728.47;5079831;27;70406;-44
2023/04/03 11:59:06;;;;;;;;;;;;;;;32.83;59.84;100732.28;5075917;27;65586;-45
2023/04/03 12:01:51;;;;;;;;;;;;;;;32.81;60.04;100736.28;5078605;28;69831;-44
2023/04/03 12:04:24;;;;;;;;;;;;;;;32.81;60.16;100739.81;5075785;27;66630;-44
2023/04/03 12:07:12;;;;;;;;;;;;;;;32.79;60.24;100752.84;5080742;27;68998;-44
2023/04/03 12:09:43;;;;;;;;;;;;;;;32.77;60.43;100748.69;5076222;27;66904;-43
2023/04/03 12:12:30;;;;;;;;;;;;;;;32.77;60.62;100765.81;5082217;27;70690;-41
2023/04/03 12:15:19;;;;;;;;;;;;;;;32.76;60.59;100768.75;5072987;27;66362;-44
2023/04/03 12:17:49;;;;;;;;;;;;;;;32.75;60.80;100767.94;5074837;27;68861;-44
2023/04/03 12:20:38;;;;;;;;;;;;;;;32.72;60.92;100769.22;5079645;27;66836;-43
2023/04/03 12:23:09;;;;;;;;;;;;;;;32.73;61.04;100759.19;5073861;27;69961;-45
2023/04/03 12:25:49;;;;;;;;;;;;;;;32.73;61.12;100764.63;5082560;27;67044;-46
2023/04/03 12:28:20;;;;;;;;;;;;;;;32.71;61.17;100772.19;5078194;27;70335;-44
2023/04/03 12:30:50;;;;;;;;;;;;;;;32.71;61.34;100770.31;5074956;27;66278;-45
2023/04/03 12:33:30;;;;;;;;;;;;;;;32.71;61.36;100783.06;5078505;28;68997;-44
2023/04/03 12:36:03;;;;;;;;;;;;;;;32.71;61.34;100799.38;5079384;27;66877;-43
2023/04/03 12:38:52;;;;;;;;;;;;;;;32.68;61.55;100797.94;5080570;27;69203;-45
2023/04/03 12:41:37;;;;;;;;;;;;;;;32.68;61.55;100794.38;5081806;27;66728;-44
2023/04/03 12:44:22;;;;;;;;;;;;;;;32.64;61.58;100794.03;5078971;27;70823;-45
2023/04/03 12:46:53;;;;;;;;;;;;;;;32.62;61.49;100807.00;5078866;27;67025;-45
2023/04/03 12:49:31;;;;;;;;;;;;;;;32.65;61.62;100811.13;5079070;27;70574;-45
2023/04/03 12:52:03;;;;;;;;;;;;;;;32.62;61.53;100806.19;5076497;27;66401;-43
2023/04/03 12:54:39;;;;;;;;;;;;;;;32.60;61.83;100803.72;5079283;27;70605;-45
2023/04/03 12:57:17;;;;;;;;;;;;;;;32.53;61.76;100804.88;5072517;27;65585;-45
2023/04/03 12:59:48;;;;;;;;;;;;;;;32.54;62.07;100806.53;5077607;27;69047;-45
2023/04/03 13:02:18;;;;;;;;;;;;;;;32.55;62.05;100813.63;5078615;27;65616;-45
2023/04/03 13:04:50;;;;;;;;;;;;;;;32.54;61.87;100814.66;5058160;27;70035;-45